Time;durP1;ratioP1;P1;durP2;ratioP2;P2;SDS_P1;SDS_P2;PMS_P1;PMS_P2;Temp;Humidity;BMP_temperature;BMP_pressure;BME280_temperature;BME280_humidity;BME280_pressure;Samples;Min_cycle;Max_cycle;Signal;HPM_P1;HPM_P2
2022/09/23 00:00:46;;;;;;;35.33;23.92;;;;;;;22.65;46.98;99144.94;2092490;28;20056;-45
2022/09/23 00:01:47;;;;;;;32.92;21.67;;;;;;;22.66;46.76;99138.50;2094315;28;20139;-46
2022/09/23 00:02:51;;;;;;;34.47;24.67;;;;;;;22.65;46.90;99144.94;2094142;28;20075;-44
2022/09/23 00:03:51;;;;;;;35.15;25.27;;;;;;;22.66;46.83;99141.19;2092886;28;20581;-45
2022/09/23 00:04:53;;;;;;;33.97;23.50;;;;;;;22.64;46.85;99138.69;2092595;28;20067;-46
2022/09/23 00:05:57;;;;;;;31.73;22.33;;;;;;;22.66;46.78;99138.50;2094999;28;20559;-47
2022/09/23 00:06:59;;;;;;;38.72;25.08;;;;;;;22.64;46.97;99137.88;2093445;28;20057;-45
2022/09/23 00:08:01;;;;;;;36.28;24.15;;;;;;;22.64;46.91;99137.88;2092584;28;20631;-47
2022/09/23 00:09:03;;;;;;;34.00;22.95;;;;;;;22.65;46.84;99137.69;2091797;28;20074;-46
2022/09/23 00:10:05;;;;;;;30.73;22.00;;;;;;;22.65;46.89;99136.81;2088016;28;20052;-46
2022/09/23 00:11:09;;;;;;;33.22;21.38;;;;;;;22.64;47.02;99129.78;2091763;28;20094;-44
2022/09/23 00:12:09;;;;;;;33.75;22.27;;;;;;;22.65;46.87;99134.13;2088187;28;20056;-47
2022/09/23 00:13:11;;;;;;;33.22;22.58;;;;;;;22.64;46.91;99135.19;2089875;28;20044;-44
2022/09/23 00:14:12;;;;;;;34.75;22.48;;;;;;;22.64;46.96;99132.47;2093877;28;20480;-46
2022/09/23 00:15:14;;;;;;;31.40;21.95;;;;;;;22.64;46.88;99132.47;2093493;28;20044;-45
2022/09/23 00:16:18;;;;;;;35.85;22.85;;;;;;;22.65;47.01;99131.41;2092964;28;20044;-47
2022/09/23 00:17:20;;;;;;;32.30;22.50;;;;;;;22.64;46.76;99132.47;2093265;28;20048;-46
2022/09/23 00:18:21;;;;;;;30.80;20.70;;;;;;;22.65;47.07;99136.81;2096721;28;20128;-46
2022/09/23 00:19:22;;;;;;;33.22;22.02;;;;;;;22.63;47.05;99131.66;2093052;28;20055;-46
2022/09/23 00:20:24;;;;;;;31.75;21.48;;;;;;;22.63;46.91;99136.22;2093500;28;20041;-47
2022/09/23 00:21:25;;;;;;;31.63;21.45;;;;;;;22.63;47.05;99131.66;2094112;28;20053;-47
2022/09/23 00:22:26;;;;;;;33.10;21.83;;;;;;;22.63;47.06;99125.41;2095338;28;20052;-46
2022/09/23 00:23:28;;;;;;;31.00;21.80;;;;;;;22.62;46.92;99134.56;2092147;28;20422;-46
2022/09/23 00:24:31;;;;;;;28.33;20.80;;;;;;;22.61;47.01;99133.72;2095114;28;20080;-48
2022/09/23 00:25:32;;;;;;;34.55;21.10;;;;;;;22.62;47.15;99126.44;2089395;28;20259;-46
2022/09/23 00:26:34;;;;;;;29.55;21.20;;;;;;;22.61;46.90;99128.31;2088980;28;20048;-48
2022/09/23 00:27:35;;;;;;;29.20;19.85;;;;;;;22.61;47.18;99131.03;2091315;28;20040;-46
2022/09/23 00:28:38;;;;;;;32.03;21.55;;;;;;;22.63;47.00;99130.81;2091370;28;20142;-47
2022/09/23 00:29:38;;;;;;;30.83;20.88;;;;;;;22.62;46.93;99132.72;2081189;28;20479;-46
2022/09/23 00:30:40;;;;;;;29.38;20.85;;;;;;;22.61;46.96;99122.09;2080604;28;20054;-45
2022/09/23 00:31:41;;;;;;;29.00;20.90;;;;;;;22.61;47.26;99130.22;2087700;28;20051;-46
2022/09/23 00:32:43;;;;;;;28.83;20.38;;;;;;;22.60;47.03;99126.69;2093043;28;20505;-46
2022/09/23 00:33:44;;;;;;;29.20;20.85;;;;;;;22.60;46.87;99132.09;2091317;28;20044;-44
2022/09/23 00:34:46;;;;;;;30.75;21.30;;;;;;;22.58;47.04;99133.34;2094832;28;20055;-46
2022/09/23 00:35:48;;;;;;;29.02;20.45;;;;;;;22.59;47.26;99125.00;2088282;28;20044;-45
2022/09/23 00:36:50;;;;;;;31.15;21.02;;;;;;;22.58;47.18;99123.34;2088355;28;20048;-47
2022/09/23 00:37:51;;;;;;;31.27;21.45;;;;;;;22.59;47.18;99124.19;2089873;28;20045;-44
2022/09/23 00:38:55;;;;;;;29.60;20.13;;;;;;;22.60;47.11;99123.16;2091771;28;20110;-45
2022/09/23 00:39:55;;;;;;;30.42;20.73;;;;;;;22.59;47.13;99126.88;2089846;28;20713;-46
2022/09/23 00:40:58;;;;;;;31.17;20.35;;;;;;;22.58;47.26;99128.75;2085934;28;20052;-46
2022/09/23 00:41:58;;;;;;;28.13;19.88;;;;;;;22.57;47.21;99126.28;2089759;28;20048;-45
2022/09/23 00:43:00;;;;;;;27.63;19.60;;;;;;;22.57;46.95;99121.72;2092514;28;20048;-46
2022/09/23 00:44:17;;;;;;;28.45;20.40;;;;;;;22.59;47.10;99124.19;2089774;28;20055;-45
2022/09/23 00:45:19;;;;;;;26.63;19.42;;;;;;;22.58;47.15;99123.34;2085629;28;20044;-46
2022/09/23 00:46:25;;;;;;;31.38;20.05;;;;;;;22.58;47.10;99125.25;2077801;27;20053;-45
2022/09/23 00:47:32;;;;;;;29.33;21.50;;;;;;;22.57;47.27;99126.28;2083755;28;20055;-46
2022/09/23 00:48:34;;;;;;;27.75;19.30;;;;;;;22.56;47.21;99128.16;2087553;28;20538;-45
2022/09/23 00:49:36;;;;;;;25.52;19.23;;;;;;;22.56;47.13;99120.03;2089923;28;20056;-48
2022/09/23 00:50:41;;;;;;;28.58;19.73;;;;;;;22.56;47.20;99124.63;2089696;28;20047;-45
2022/09/23 00:51:55;;;;;;;26.77;19.10;;;;;;;22.53;47.11;99121.28;2091539;28;20045;-46
2022/09/23 00:53:00;;;;;;;27.85;19.48;;;;;;;22.55;47.21;99114.88;2090757;28;20052;-48
2022/09/23 00:54:05;;;;;;;27.35;19.88;;;;;;;22.53;47.13;99115.06;2092789;28;20048;-48
2022/09/23 00:55:12;;;;;;;24.63;18.52;;;;;;;22.54;47.40;99116.75;2083746;28;20115;-47
2022/09/23 00:56:14;;;;;;;28.58;18.92;;;;;;;22.53;47.31;99115.88;2088819;28;20055;-47
2022/09/23 00:57:17;;;;;;;26.52;17.92;;;;;;;22.53;47.30;99115.06;2092224;28;20181;-45
2022/09/23 00:58:23;;;;;;;29.75;19.58;;;;;;;22.57;47.27;99120.88;2089558;28;20048;-46
2022/09/23 00:59:25;;;;;;;25.38;18.83;;;;;;;22.54;47.23;99116.75;2089748;28;20088;-47
2022/09/23 01:00:26;;;;;;;27.85;18.05;;;;;;;22.56;47.29;99114.63;2091370;28;20147;-44
2022/09/23 01:01:27;;;;;;;27.27;19.05;;;;;;;22.53;47.19;99113.19;2088670;28;20057;-47
2022/09/23 01:02:28;;;;;;;23.75;17.55;;;;;;;22.56;47.36;99114.63;2092083;28;20056;-45
2022/09/23 01:03:31;;;;;;;27.40;19.33;;;;;;;22.54;47.26;99111.34;2093355;28;20101;-46
2022/09/23 01:04:33;;;;;;;27.30;18.58;;;;;;;22.55;47.07;99112.16;2086964;28;20716;-47
2022/09/23 01:05:35;;;;;;;26.42;17.95;;;;;;;22.53;47.25;99107.78;2091011;28;26691;-44
2022/09/23 01:06:36;;;;;;;25.92;18.40;;;;;;;22.53;47.20;99107.78;2093990;28;20128;-46
2022/09/23 01:07:38;;;;;;;25.27;17.88;;;;;;;22.53;47.30;99105.06;2093196;28;20056;-45
2022/09/23 01:08:40;;;;;;;24.73;17.75;;;;;;;22.55;47.21;99110.28;2086319;28;20048;-48
2022/09/23 01:09:44;;;;;;;26.05;17.88;;;;;;;22.56;47.27;99103.00;2093569;28;20044;-44
2022/09/23 01:10:54;;;;;;;27.25;17.33;;;;;;;22.54;47.10;99111.34;2087607;28;20048;-45
2022/09/23 01:12:11;;;;;;;22.08;16.23;;;;;;;22.52;47.38;99108.84;2091982;28;22816;-46
2022/09/23 01:13:20;;;;;;;25.63;18.20;;;;;;;22.51;47.37;99100.94;2089075;28;20062;-45
2022/09/23 01:14:37;;;;;;;26.40;16.95;;;;;;;22.48;47.33;99107.63;2086847;28;20630;-49
2022/09/23 01:15:47;;;;;;;26.10;17.50;;;;;;;22.48;47.15;99104.94;2089345;28;20089;-47
2022/09/23 01:16:57;;;;;;;21.92;16.08;;;;;;;22.50;47.34;99104.69;2090756;28;20052;-44
2022/09/23 01:18:07;;;;;;;22.52;15.90;;;;;;;22.49;47.40;99108.44;2076425;28;21721;-45
2022/09/23 01:19:26;;;;;;;22.92;16.75;;;;;;;22.45;47.43;99097.22;2089545;28;20048;-46
2022/09/23 01:21:01;;;;;;;22.92;16.77;;;;;;;22.42;47.56;99100.38;2091728;28;20052;-45
2022/09/23 01:22:09;;;;;;;22.80;16.75;;;;;;;22.45;47.33;99107.22;2085820;28;20050;-44
2022/09/23 01:23:28;;;;;;;24.92;16.65;;;;;;;22.47;47.41;99103.25;2090283;28;20135;-45
2022/09/23 01:24:50;;;;;;;25.30;17.02;;;;;;;22.41;47.39;99100.59;2090890;28;20047;-48
2022/09/23 01:26:19;;;;;;;23.15;16.67;;;;;;;22.44;47.55;99102.88;2085016;28;20909;-47
2022/09/23 01:27:35;;;;;;;22.15;15.15;;;;;;;22.43;47.58;99107.44;2092201;28;20558;-46
2022/09/23 01:28:59;;;;;;;24.00;17.02;;;;;;;22.43;47.30;99103.91;2091768;28;20108;-47
2022/09/23 01:30:09;;;;;;;23.08;15.65;;;;;;;22.42;47.49;99099.53;2090843;28;20718;-45
2022/09/23 01:31:18;;;;;;;21.27;15.40;;;;;;;22.42;47.54;99100.38;2091216;28;20233;-45
2022/09/23 01:32:31;;;;;;;24.65;16.52;;;;;;;22.45;47.30;99097.22;2095317;28;20498;-44
2022/09/23 01:33:39;;;;;;;23.85;14.93;;;;;;;22.43;47.42;99099.34;2093316;28;20044;-46
2022/09/23 01:34:48;;;;;;;24.50;16.92;;;;;;;22.43;47.43;99099.34;2090079;28;20667;-46
2022/09/23 01:36:04;;;;;;;21.85;15.30;;;;;;;22.44;47.44;99097.47;2084203;28;20048;-46
2022/09/23 01:37:10;;;;;;;20.33;15.38;;;;;;;22.45;47.34;99091.81;2088141;28;20075;-46
2022/09/23 01:38:20;;;;;;;23.02;15.70;;;;;;;22.45;47.44;99096.41;2085894;28;20071;-45
2022/09/23 01:39:28;;;;;;;25.48;15.38;;;;;;;22.43;47.59;99093.94;2089443;28;20060;-47
2022/09/23 01:40:38;;;;;;;22.02;15.30;;;;;;;22.43;47.35;99095.81;2091821;28;21043;-46
2022/09/23 01:41:50;;;;;;;20.92;14.75;;;;;;;22.42;47.36;99092.25;2078981;28;20657;-47
2022/09/23 01:42:56;;;;;;;21.10;14.60;;;;;;;22.43;47.51;99090.41;2085980;28;20390;-45
2022/09/23 01:44:02;;;;;;;23.60;16.10;;;;;;;22.44;47.36;99094.75;2094454;28;20125;-46
2022/09/23 01:45:11;;;;;;;24.88;15.00;;;;;;;22.45;47.47;99091.81;2089143;28;20147;-45
2022/09/23 01:46:19;;;;;;;23.02;15.98;;;;;;;22.43;47.32;99088.53;2087880;28;20053;-46
2022/09/23 01:47:26;;;;;;;23.20;16.45;;;;;;;22.44;47.39;99086.66;2091952;28;21478;-46
2022/09/23 01:48:32;;;;;;;20.60;14.07;;;;;;;22.44;47.59;99092.06;2090371;28;20096;-47
2022/09/23 01:49:40;;;;;;;20.55;14.65;;;;;;;22.41;47.38;99098.72;2092823;28;20059;-47
2022/09/23 01:50:55;;;;;;;25.98;16.13;;;;;;;22.42;47.52;99092.25;2091478;28;20159;-46
2022/09/23 01:52:04;;;;;;;23.48;16.10;;;;;;;22.43;47.42;99098.50;2088653;28;20056;-47
2022/09/23 01:53:10;;;;;;;21.15;14.90;;;;;;;22.43;47.42;99099.34;2090609;28;20491;-46
2022/09/23 01:54:18;;;;;;;20.42;15.30;;;;;;;22.43;47.55;99098.50;2090246;28;20048;-48
2022/09/23 01:55:25;;;;;;;22.60;14.82;;;;;;;22.42;47.43;99092.25;2090069;28;20855;-47
2022/09/23 01:56:31;;;;;;;22.00;14.85;;;;;;;22.42;47.53;99088.72;2083020;28;20052;-47
2022/09/23 01:57:37;;;;;;;21.25;14.43;;;;;;;22.42;47.44;99094.97;2090630;28;21101;-45
2022/09/23 01:58:45;;;;;;;19.70;14.73;;;;;;;22.43;47.53;99093.94;2087377;28;20572;-52
2022/09/23 01:59:49;;;;;;;21.88;14.25;;;;;;;22.42;47.55;99094.13;2090884;28;20055;-46
2022/09/23 02:00:57;;;;;;;17.35;13.20;;;;;;;22.42;47.57;99091.44;2092044;28;20073;-46
2022/09/23 02:02:05;;;;;;;20.00;13.32;;;;;;;22.41;47.37;99098.72;2087914;28;20118;-45
2022/09/23 02:03:12;;;;;;;24.55;15.18;;;;;;;22.41;47.48;99096.00;2091492;28;20048;-48
2022/09/23 02:04:22;;;;;;;21.50;13.73;;;;;;;22.38;47.39;99091.06;2091015;28;20217;-45
2022/09/23 02:05:26;;;;;;;17.15;13.00;;;;;;;22.41;47.57;99093.31;2089970;28;20089;-47
2022/09/23 02:06:33;;;;;;;19.80;13.82;;;;;;;22.41;47.46;99093.31;2088673;28;20634;-45
2022/09/23 02:07:40;;;;;;;21.88;14.88;;;;;;;22.40;47.61;99094.38;2092214;28;20049;-45
2022/09/23 02:08:45;;;;;;;19.55;13.35;;;;;;;22.41;47.56;99095.19;2091223;28;20145;-45
2022/09/23 02:09:55;;;;;;;19.63;14.20;;;;;;;22.42;47.48;99094.13;2089462;28;20126;-44
2022/09/23 02:11:03;;;;;;;17.67;13.30;;;;;;;22.41;47.68;99095.19;2089158;28;20063;-47
2022/09/23 02:12:08;;;;;;;20.52;13.52;;;;;;;22.39;47.63;99100.81;2087997;28;20044;-46
2022/09/23 02:13:16;;;;;;;18.58;14.32;;;;;;;22.38;47.58;99104.56;2092466;28;20533;-46
2022/09/23 02:14:23;;;;;;;19.60;14.20;;;;;;;22.39;47.69;99103.50;2091248;28;20048;-45
2022/09/23 02:15:32;;;;;;;18.80;13.35;;;;;;;22.40;47.61;99105.19;2092957;28;20075;-47
2022/09/23 02:16:38;;;;;;;20.80;13.55;;;;;;;22.38;47.63;99099.16;2090615;28;20052;-47
2022/09/23 02:17:45;;;;;;;19.75;12.90;;;;;;;22.36;47.65;99098.53;2078493;28;20049;-46
2022/09/23 02:18:52;;;;;;;19.25;13.82;;;;;;;22.37;47.77;99102.06;2083386;28;20064;-46
2022/09/23 02:20:00;;;;;;;16.70;12.13;;;;;;;22.35;47.71;99096.88;2084061;28;20052;-45
2022/09/23 02:21:05;;;;;;;18.88;12.85;;;;;;;22.37;47.58;99093.97;2083971;28;20609;-44
2022/09/23 02:22:12;;;;;;;19.35;12.88;;;;;;;22.37;47.66;99094.81;2080539;28;20049;-47
2022/09/23 02:23:18;;;;;;;14.80;11.43;;;;;;;22.34;47.57;99095.22;2084995;28;20467;-46
2022/09/23 02:24:23;;;;;;;16.00;12.68;;;;;;;22.35;47.60;99094.19;2082150;28;20140;-46
2022/09/23 02:25:32;;;;;;;20.67;12.77;;;;;;;22.35;47.56;99099.59;2085150;28;20103;-45
2022/09/23 02:26:38;;;;;;;17.95;12.82;;;;;;;22.36;47.64;99095.00;2078811;28;20052;-55
2022/09/23 02:27:45;;;;;;;17.45;12.25;;;;;;;22.36;47.40;99097.72;2086766;28;20059;-54
2022/09/23 02:28:54;;;;;;;19.35;12.68;;;;;;;22.33;47.54;99101.69;2091114;28;20217;-50
2022/09/23 02:30:00;;;;;;;19.55;13.60;;;;;;;22.35;47.82;99096.88;2093000;28;20123;-54
2022/09/23 02:31:10;;;;;;;16.33;12.15;;;;;;;22.34;47.59;99097.91;2091367;28;20051;-49
2022/09/23 02:32:17;;;;;;;18.55;12.60;;;;;;;22.34;47.66;99092.50;2092879;28;20044;-52
2022/09/23 02:33:25;;;;;;;17.33;12.80;;;;;;;22.34;47.61;99097.91;2092011;28;20044;-49
2022/09/23 02:34:39;;;;;;;18.02;12.18;;;;;;;22.33;47.68;99098.97;2094307;28;20048;-51
2022/09/23 02:35:50;;;;;;;15.65;12.05;;;;;;;22.33;47.80;99095.44;2082278;28;20538;-46
2022/09/23 02:37:02;;;;;;;21.42;12.93;;;;;;;22.32;47.94;99102.72;2088639;28;20190;-51
2022/09/23 02:38:16;;;;;;;17.85;12.23;;;;;;;22.35;47.75;99104.19;2092179;28;20048;-52
2022/09/23 02:39:19;;;;;;;18.27;12.77;;;;;;;22.32;47.85;99102.72;2089193;28;20085;-49
2022/09/23 02:40:28;;;;;;;18.25;12.20;;;;;;;22.32;47.86;99097.31;2089655;28;20050;-49
2022/09/23 02:41:35;;;;;;;15.85;11.70;;;;;;;22.32;47.60;99101.91;2090862;28;20052;-55
2022/09/23 02:42:47;;;;;;;17.48;11.77;;;;;;;22.33;47.71;99106.25;2085671;28;20048;-51
2022/09/23 02:43:53;;;;;;;16.25;11.40;;;;;;;22.33;47.85;99101.69;2079431;28;20061;-55
2022/09/23 02:44:55;;;;;;;16.10;11.63;;;;;;;22.30;47.74;99104.81;2084946;28;20048;-48
2022/09/23 02:45:56;;;;;;;17.45;11.77;;;;;;;22.31;47.66;99101.06;2087491;28;20073;-53
2022/09/23 02:46:57;;;;;;;17.27;11.93;;;;;;;22.32;47.62;99097.31;2082022;28;20093;-53
2022/09/23 02:48:03;;;;;;;17.23;11.18;;;;;;;22.33;47.68;99096.28;2081357;28;20056;-51
2022/09/23 02:49:12;;;;;;;15.10;10.68;;;;;;;22.33;47.52;99096.28;2083401;28;20052;-49
2022/09/23 02:50:13;;;;;;;18.02;12.35;;;;;;;22.32;47.48;99102.72;2080988;28;20636;-48
2022/09/23 02:51:15;;;;;;;18.35;11.68;;;;;;;22.33;47.76;99101.69;2081732;28;20044;-53
2022/09/23 02:52:16;;;;;;;16.08;11.45;;;;;;;22.32;47.74;99097.31;2084217;28;20114;-50
2022/09/23 02:53:18;;;;;;;17.05;11.73;;;;;;;22.32;47.61;99105.44;2084800;28;20075;-51
2022/09/23 02:54:21;;;;;;;17.23;11.02;;;;;;;22.33;47.75;99092.75;2084041;28;20055;-47
2022/09/23 02:55:25;;;;;;;16.95;11.00;;;;;;;22.33;47.63;99098.97;2082025;28;20048;-52
2022/09/23 02:56:27;;;;;;;13.93;11.23;;;;;;;22.31;47.66;99101.06;2085418;28;21414;-54
2022/09/23 02:57:29;;;;;;;20.00;11.57;;;;;;;22.31;47.59;99101.06;2089904;28;20578;-49
2022/09/23 02:58:30;;;;;;;16.30;11.93;;;;;;;22.32;47.68;99105.44;2088894;28;20132;-47
2022/09/23 02:59:33;;;;;;;14.40;10.40;;;;;;;22.32;47.74;99102.72;2080658;28;20078;-50
2022/09/23 03:00:48;;;;;;;18.63;11.27;;;;;;;22.29;47.86;99101.28;2087366;28;20075;-48
2022/09/23 03:02:16;;;;;;;15.85;11.35;;;;;;;22.28;47.64;99101.50;2090131;28;20056;-47
2022/09/23 03:03:32;;;;;;;16.02;10.85;;;;;;;22.28;47.83;99109.59;2091037;28;20051;-47
2022/09/23 03:04:46;;;;;;;13.90;10.65;;;;;;;22.27;47.64;99103.38;2087608;28;20537;-49
2022/09/23 03:05:53;;;;;;;16.60;11.52;;;;;;;22.27;47.91;99099.84;2081312;28;20044;-48
2022/09/23 03:07:01;;;;;;;16.83;11.15;;;;;;;22.27;47.92;99099.84;2087002;28;20425;-47
2022/09/23 03:08:18;;;;;;;15.13;10.55;;;;;;;22.27;47.74;99097.16;2090643;28;21977;-47
2022/09/23 03:09:26;;;;;;;14.85;10.90;;;;;;;22.27;47.76;99099.84;2091215;28;20106;-46
2022/09/23 03:10:32;;;;;;;16.98;11.23;;;;;;;22.27;47.74;99099.84;2089453;28;20537;-50
2022/09/23 03:11:39;;;;;;;14.85;10.13;;;;;;;22.26;47.84;99096.31;2077712;28;20055;-47
2022/09/23 03:12:51;;;;;;;14.15;10.60;;;;;;;22.25;47.87;99091.94;2087098;28;20598;-46
2022/09/23 03:14:16;;;;;;;16.33;10.73;;;;;;;22.24;47.81;99089.47;2084583;28;20056;-48
2022/09/23 03:15:24;;;;;;;15.38;10.32;;;;;;;22.23;47.83;99090.50;2092460;28;20032;-47
2022/09/23 03:16:33;;;;;;;13.30;11.02;;;;;;;22.24;47.89;99090.28;2090016;28;20044;-48
2022/09/23 03:17:41;;;;;;;15.52;10.52;;;;;;;22.25;47.89;99085.72;2086084;28;20051;-46
2022/09/23 03:18:49;;;;;;;13.25;10.23;;;;;;;22.24;47.91;99090.28;2078770;28;20144;-47
2022/09/23 03:19:56;;;;;;;19.27;11.48;;;;;;;22.25;47.99;99088.41;2082502;28;20518;-46
2022/09/23 03:21:05;;;;;;;14.18;10.52;;;;;;;22.26;47.95;99087.41;2079249;28;20056;-47
2022/09/23 03:22:10;;;;;;;16.95;10.45;;;;;;;22.26;47.88;99093.63;2083720;28;20494;-47
2022/09/23 03:23:14;;;;;;;14.63;10.60;;;;;;;22.25;47.95;99093.81;2080989;28;20044;-46
2022/09/23 03:24:19;;;;;;;12.48;9.98;;;;;;;22.25;47.95;99083.00;2080976;28;20128;-48
2022/09/23 03:25:23;;;;;;;14.18;10.38;;;;;;;22.25;47.80;99089.25;2082503;28;20049;-50
2022/09/23 03:26:31;;;;;;;16.05;10.23;;;;;;;22.24;47.69;99090.28;2076673;28;20049;-45
2022/09/23 03:27:34;;;;;;;14.43;10.52;;;;;;;22.24;47.93;99093.00;2084536;28;20045;-46
2022/09/23 03:28:38;;;;;;;12.52;9.73;;;;;;;22.25;47.88;99091.13;2084173;28;20041;-46
2022/09/23 03:29:44;;;;;;;13.85;9.70;;;;;;;22.26;47.82;99087.41;2084275;28;20628;-47
2022/09/23 03:30:46;;;;;;;12.48;9.65;;;;;;;22.26;47.80;99084.69;2078880;28;20100;-48
2022/09/23 03:31:47;;;;;;;13.95;9.95;;;;;;;22.25;47.82;99091.13;2083034;28;20061;-50
2022/09/23 03:32:50;;;;;;;15.18;10.00;;;;;;;22.26;47.98;99082.81;2084902;28;20052;-47
2022/09/23 03:33:55;;;;;;;13.50;9.73;;;;;;;22.25;47.75;99081.13;2085713;28;21078;-45
2022/09/23 03:35:01;;;;;;;15.25;9.85;;;;;;;22.25;47.93;99085.72;2083648;28;20080;-45
2022/09/23 03:37:32;;;;;;;12.00;8.88;;;;;;;22.21;48.17;99081.81;2082403;28;20566;-45
2022/09/23 03:38:37;;;;;;;14.60;8.93;;;;;;;22.22;47.80;99080.75;2082153;28;20117;-48
2022/09/23 03:39:43;;;;;;;12.93;9.75;;;;;;;22.23;47.94;99080.53;2082721;28;20047;-52
2022/09/23 03:40:49;;;;;;;11.55;8.88;;;;;;;22.24;47.83;99081.38;2080892;28;20145;-46
2022/09/23 03:41:54;;;;;;;14.52;9.23;;;;;;;22.22;47.87;99081.56;2082314;28;20053;-47
2022/09/23 03:42:57;;;;;;;11.95;8.90;;;;;;;22.23;47.77;99077.00;2085078;28;20049;-46
2022/09/23 03:43:59;;;;;;;12.20;8.95;;;;;;;22.22;48.10;99075.34;2087898;28;20112;-48
2022/09/23 03:45:07;;;;;;;14.95;9.50;;;;;;;22.21;48.23;99074.53;2093522;28;20434;-46
2022/09/23 03:46:08;;;;;;;13.48;9.25;;;;;;;22.22;47.99;99075.34;2092890;28;20598;-45
2022/09/23 03:47:11;;;;;;;11.73;9.35;;;;;;;22.20;48.10;99077.41;2090874;28;20060;-46
2022/09/23 03:48:14;;;;;;;13.30;9.07;;;;;;;22.23;48.08;99077.00;2095459;28;20048;-46
2022/09/23 03:49:18;;;;;;;13.80;8.85;;;;;;;22.22;47.83;99080.75;2095350;28;20040;-46
2022/09/23 03:50:21;;;;;;;14.25;9.18;;;;;;;22.21;47.92;99076.41;2093968;28;20688;-47
2022/09/23 03:51:23;;;;;;;10.88;8.55;;;;;;;22.22;48.03;99072.63;2092723;28;21027;-47
2022/09/23 03:52:25;;;;;;;13.88;9.48;;;;;;;22.21;48.06;99079.09;2094160;28;20072;-50
2022/09/23 03:53:26;;;;;;;10.30;8.25;;;;;;;22.20;47.93;99074.72;2094447;28;20567;-45
2022/09/23 03:54:28;;;;;;;12.60;9.30;;;;;;;22.19;47.95;99078.47;2094587;28;20053;-47
2022/09/23 03:55:30;;;;;;;12.80;8.77;;;;;;;22.18;48.09;99072.25;2088495;28;20662;-47
2022/09/23 03:56:31;;;;;;;12.65;9.18;;;;;;;22.19;48.12;99073.91;2089033;28;20132;-48
2022/09/23 03:57:32;;;;;;;11.82;8.52;;;;;;;22.21;48.07;99079.09;2094086;28;20075;-47
2022/09/23 03:58:34;;;;;;;13.07;9.60;;;;;;;22.20;48.23;99072.03;2092379;28;20329;-45
2022/09/23 03:59:35;;;;;;;13.82;9.20;;;;;;;22.20;48.04;99072.03;2093585;28;20123;-47
2022/09/23 04:00:37;;;;;;;11.43;8.65;;;;;;;22.20;48.10;99078.25;2093215;28;20062;-46
2022/09/23 04:01:38;;;;;;;11.55;9.50;;;;;;;22.23;47.96;99079.69;2091203;28;20044;-47
2022/09/23 04:02:41;;;;;;;14.13;9.32;;;;;;;22.21;48.15;99069.13;2094042;28;20058;-50
2022/09/23 04:03:42;;;;;;;11.60;8.23;;;;;;;22.22;47.95;99067.25;2087618;28;20044;-48
2022/09/23 04:04:44;;;;;;;12.23;9.25;;;;;;;22.20;47.81;99066.63;2094832;28;20051;-50
2022/09/23 04:05:47;;;;;;;14.38;8.27;;;;;;;22.21;47.96;99068.28;2096019;28;20123;-47
2022/09/23 04:06:49;;;;;;;12.73;9.13;;;;;;;22.20;48.04;99066.63;2093525;28;20056;-49
2022/09/23 04:07:49;;;;;;;11.50;7.78;;;;;;;22.20;48.25;99063.91;2093683;28;20109;-48
2022/09/23 04:08:51;;;;;;;11.57;8.95;;;;;;;22.19;48.06;99063.09;2094425;28;20113;-46
2022/09/23 04:09:52;;;;;;;12.00;8.52;;;;;;;22.20;47.96;99061.22;2089963;28;20398;-45
2022/09/23 04:11:00;;;;;;;11.88;8.02;;;;;;;22.17;48.26;99056.22;2089326;28;20171;-46
2022/09/23 04:12:02;;;;;;;12.77;8.13;;;;;;;22.18;48.13;99060.63;2093928;28;20044;-46
2022/09/23 04:13:04;;;;;;;11.55;8.07;;;;;;;22.18;48.12;99061.44;2094239;28;20060;-49
2022/09/23 04:14:04;;;;;;;12.77;8.32;;;;;;;22.19;48.18;99065.78;2093835;28;20048;-48
2022/09/23 04:15:07;;;;;;;13.55;8.93;;;;;;;22.20;48.08;99066.63;2095045;28;20118;-47
2022/09/23 04:16:08;;;;;;;11.32;8.30;;;;;;;22.19;48.14;99059.56;2093632;28;20395;-48
2022/09/23 04:17:10;;;;;;;13.07;8.10;;;;;;;22.20;48.15;99064.75;2089552;28;20054;-50
2022/09/23 04:18:11;;;;;;;12.88;8.00;;;;;;;22.20;48.13;99061.22;2091697;28;20052;-48
2022/09/23 04:19:14;;;;;;;10.63;7.60;;;;;;;22.19;48.10;99065.78;2094031;28;20053;-48
2022/09/23 04:20:16;;;;;;;13.77;8.43;;;;;;;22.17;47.88;99065.16;2093092;28;20056;-47
2022/09/23 04:21:19;;;;;;;10.45;8.70;;;;;;;22.18;47.92;99064.16;2096411;28;20056;-47
2022/09/23 04:22:19;;;;;;;11.88;8.35;;;;;;;22.18;48.06;99064.16;2094028;28;20376;-46
2022/09/23 04:23:21;;;;;;;11.00;8.32;;;;;;;22.18;48.13;99063.31;2090492;28;20105;-48
2022/09/23 04:24:22;;;;;;;11.68;7.90;;;;;;;22.18;48.13;99069.56;2091852;28;20045;-50
2022/09/23 04:25:24;;;;;;;11.82;8.13;;;;;;;22.17;48.05;99064.31;2086380;28;21194;-49
2022/09/23 04:26:24;;;;;;;13.07;8.65;;;;;;;22.17;48.10;99061.63;2086310;28;20481;-50
2022/09/23 04:27:26;;;;;;;9.43;7.63;;;;;;;22.17;48.12;99065.16;2093523;28;20048;-47
2022/09/23 04:28:27;;;;;;;12.43;8.18;;;;;;;22.16;48.17;99063.50;2091432;28;20095;-46
2022/09/23 04:29:29;;;;;;;11.27;7.53;;;;;;;22.18;48.13;99064.16;2095730;28;20045;-46
2022/09/23 04:30:29;;;;;;;13.02;8.43;;;;;;;22.18;48.11;99066.03;2092378;28;20444;-46
2022/09/23 04:31:31;;;;;;;12.38;7.13;;;;;;;22.16;48.29;99060.78;2093158;28;20052;-46
2022/09/23 04:32:32;;;;;;;10.88;7.47;;;;;;;22.17;48.12;99058.91;2095828;28;20101;-45
2022/09/23 04:33:34;;;;;;;11.45;8.32;;;;;;;22.16;48.28;99059.97;2093114;28;20121;-46
2022/09/23 04:34:34;;;;;;;14.88;7.85;;;;;;;22.16;48.19;99059.97;2091931;28;20096;-48
2022/09/23 04:35:37;;;;;;;13.07;8.90;;;;;;;22.16;48.26;99059.97;2089314;28;20048;-46
2022/09/23 04:36:40;;;;;;;11.57;8.38;;;;;;;22.16;48.26;99066.19;2094311;28;20056;-49
2022/09/23 04:37:41;;;;;;;11.25;7.20;;;;;;;22.15;48.19;99058.28;2093892;28;20052;-47
2022/09/23 04:38:44;;;;;;;10.50;7.13;;;;;;;22.16;48.18;99063.50;2096931;28;20052;-46
2022/09/23 04:39:45;;;;;;;11.40;7.07;;;;;;;22.17;48.10;99059.75;2090842;28;20352;-47
2022/09/23 04:40:46;;;;;;;10.30;7.65;;;;;;;22.15;48.30;99063.69;2088927;28;20165;-50
2022/09/23 04:41:47;;;;;;;11.23;7.57;;;;;;;22.15;48.21;99061.84;2093153;28;20052;-47
2022/09/23 04:42:49;;;;;;;11.70;7.80;;;;;;;22.15;48.21;99064.56;2087206;28;20237;-47
2022/09/23 04:43:49;;;;;;;11.50;7.25;;;;;;;22.14;48.17;99062.06;2092108;28;20080;-47
2022/09/23 04:44:51;;;;;;;9.77;7.30;;;;;;;22.13;48.29;99065.81;2089102;28;20044;-48
2022/09/23 04:45:59;;;;;;;10.95;7.80;;;;;;;22.13;48.31;99063.13;2088195;28;23166;-46
2022/09/23 04:47:01;;;;;;;12.07;7.85;;;;;;;22.12;48.32;99067.69;2089268;28;22231;-46
2022/09/23 04:48:02;;;;;;;11.55;6.38;;;;;;;22.14;48.31;99070.16;2091638;28;20051;-47
2022/09/23 04:49:04;;;;;;;12.88;8.65;;;;;;;22.14;48.41;99067.47;2094304;28;20079;-47
2022/09/23 04:50:06;;;;;;;9.15;6.88;;;;;;;22.14;48.28;99072.84;2093880;28;20184;-48
2022/09/23 04:51:10;;;;;;;9.25;7.57;;;;;;;22.15;48.19;99072.66;2087844;28;20118;-48
2022/09/23 04:52:12;;;;;;;12.88;7.80;;;;;;;22.14;48.20;99080.97;2095262;28;20048;-47
2022/09/23 04:53:15;;;;;;;9.13;7.15;;;;;;;22.14;48.25;99072.84;2091885;28;20478;-47
2022/09/23 04:54:16;;;;;;;9.00;7.03;;;;;;;22.13;48.25;99071.22;2093852;28;20044;-48
2022/09/23 04:55:18;;;;;;;9.50;7.32;;;;;;;22.13;48.36;99074.75;2088480;28;20075;-45
2022/09/23 04:56:21;;;;;;;10.80;6.88;;;;;;;22.13;48.26;99079.31;2090235;28;20048;-46
2022/09/23 04:57:23;;;;;;;9.15;6.20;;;;;;;22.14;48.29;99080.97;2091671;28;20568;-48
2022/09/23 04:58:24;;;;;;;11.82;7.45;;;;;;;22.11;48.41;99076.00;2093957;28;20053;-47
2022/09/23 04:59:25;;;;;;;11.02;6.95;;;;;;;22.12;48.21;99080.34;2092171;28;20052;-46
2022/09/23 05:00:27;;;;;;;11.27;7.22;;;;;;;22.13;48.37;99074.75;2094683;28;20040;-46
2022/09/23 05:01:30;;;;;;;11.23;7.18;;;;;;;22.14;48.33;99078.25;2092582;28;20048;-49
2022/09/23 05:02:33;;;;;;;9.25;6.50;;;;;;;22.14;48.27;99083.66;2092603;28;20047;-47